Time;durP1;ratioP1;P1;durP2;ratioP2;P2;SDS_P1;SDS_P2;PMS_P1;PMS_P2;Temp;Humidity;BMP_temperature;BMP_pressure;BME280_temperature;BME280_humidity;BME280_pressure;Samples;Min_cycle;Max_cycle;Signal;HPM_P1;HPM_P2
2022/04/09 00:00:29;;;;;;;3.30;0.52;;;4.60;99.90;;;;;;5039972;28;20044;-75
2022/04/09 00:02:55;;;;;;;0.35;0.20;;;4.60;99.90;;;;;;5026885;28;20108;-75
2022/04/09 00:05:20;;;;;;;1.58;0.80;;;4.60;99.90;;;;;;5044370;28;20147;-75
2022/04/09 00:07:46;;;;;;;0.55;0.22;;;4.60;99.90;;;;;;5058454;28;20068;-75
2022/04/09 00:10:12;;;;;;;2.50;0.40;;;4.60;99.90;;;;;;5042724;28;20048;-75
2022/04/09 00:12:38;;;;;;;4.57;0.70;;;4.60;99.90;;;;;;5058873;28;20037;-75
2022/04/09 00:15:05;;;;;;;1.33;0.50;;;4.60;99.90;;;;;;5025893;28;20052;-75
2022/04/09 00:17:45;;;;;;;1.42;0.50;;;4.60;99.90;;;;;;5061122;28;20223;-75
2022/04/09 00:20:12;;;;;;;1.00;0.45;;;4.60;99.90;;;;;;5039248;28;20040;-75
2022/04/09 00:22:39;;;;;;;1.67;0.50;;;4.60;99.90;;;;;;5042488;28;20082;-75
2022/04/09 00:25:06;;;;;;;0.80;0.30;;;4.60;99.90;;;;;;5041502;28;20044;-75
2022/04/09 00:27:31;;;;;;;1.20;0.30;;;4.60;99.90;;;;;;5026131;28;20037;-75
2022/04/09 00:29:57;;;;;;;2.10;0.60;;;4.50;99.90;;;;;;5038373;28;20106;-75
2022/04/09 00:32:23;;;;;;;4.07;1.23;;;4.50;99.90;;;;;;5057406;28;20036;-75
2022/04/09 00:34:48;;;;;;;1.10;0.32;;;4.50;99.90;;;;;;5038509;28;20045;-75
2022/04/09 00:37:14;;;;;;;0.70;0.35;;;4.40;99.90;;;;;;5056237;28;20029;-75
2022/04/09 00:39:39;;;;;;;2.40;0.22;;;4.40;99.90;;;;;;5040738;28;20045;-75
2022/04/09 00:42:11;;;;;;;2.58;0.73;;;4.40;99.90;;;;;;5041807;28;20040;-75
2022/04/09 00:44:37;;;;;;;2.00;0.40;;;4.30;99.90;;;;;;5038619;28;20052;-75
2022/04/09 00:47:02;;;;;;;3.20;0.25;;;4.30;99.90;;;;;;5041818;28;20063;-75
2022/04/09 00:49:28;;;;;;;1.95;0.40;;;4.30;99.90;;;;;;5040568;28;20056;-75
2022/04/09 00:51:56;;;;;;;0.50;0.30;;;4.30;99.90;;;;;;5043781;28;20052;-75
2022/04/09 00:54:24;;;;;;;5.65;0.70;;;4.30;99.90;;;;;;5042397;28;20072;-75
2022/04/09 00:56:52;;;;;;;0.40;0.30;;;4.30;99.90;;;;;;5024189;28;20084;-75
2022/04/09 00:59:23;;;;;;;0.30;0.20;;;4.30;99.90;;;;;;5039692;28;20450;-75
2022/04/09 01:01:51;;;;;;;1.23;0.35;;;4.30;99.90;;;;;;5056999;28;20068;-75
2022/04/09 01:04:17;;;;;;;1.48;0.55;;;4.30;99.90;;;;;;5043538;28;20029;-75
2022/04/09 01:06:43;;;;;;;0.45;0.30;;;4.40;99.90;;;;;;5040099;28;20043;-75
2022/04/09 01:09:08;;;;;;;4.38;0.50;;;4.40;99.90;;;;;;5060952;28;20075;-75
2022/04/09 01:11:34;;;;;;;5.20;0.38;;;4.40;99.90;;;;;;5041663;28;20033;-76
2022/04/09 01:14:01;;;;;;;0.40;0.20;;;4.40;99.90;;;;;;5039278;28;20183;-75
2022/04/09 01:16:30;;;;;;;4.63;0.35;;;4.40;99.90;;;;;;5036312;28;20049;-75
2022/04/09 01:18:59;;;;;;;3.50;0.60;;;4.40;99.90;;;;;;5055654;28;20049;-75
2022/04/09 01:21:26;;;;;;;0.90;0.38;;;4.40;99.90;;;;;;5057970;28;20037;-75
2022/04/09 01:23:52;;;;;;;0.75;0.10;;;4.40;99.90;;;;;;5058449;28;20641;-75
2022/04/09 01:26:18;;;;;;;0.93;0.43;;;4.40;99.90;;;;;;5054573;28;20052;-75
2022/04/09 01:28:44;;;;;;;0.25;0.25;;;4.40;99.90;;;;;;5039919;28;20040;-76
2022/04/09 01:31:10;;;;;;;0.65;0.32;;;4.40;99.90;;;;;;5035262;28;20045;-75
2022/04/09 01:33:36;;;;;;;0.63;0.28;;;4.30;99.90;;;;;;5042556;28;20041;-75
2022/04/09 01:36:01;;;;;;;0.30;0.20;;;4.30;99.90;;;;;;5043099;28;20419;-75
2022/04/09 01:38:27;;;;;;;0.90;0.30;;;4.20;99.90;;;;;;5039385;28;20384;-75
2022/04/09 01:40:54;;;;;;;0.65;0.22;;;4.20;99.90;;;;;;5041026;28;20047;-75
2022/04/09 01:43:20;;;;;;;0.20;0.15;;;4.20;99.90;;;;;;5037679;28;20064;-75
2022/04/09 01:45:46;;;;;;;2.42;0.30;;;4.20;99.90;;;;;;5033913;28;20041;-75
2022/04/09 01:48:12;;;;;;;2.60;0.40;;;4.20;99.90;;;;;;5038489;28;20041;-75
2022/04/09 01:50:38;;;;;;;0.50;0.30;;;4.20;99.90;;;;;;5039286;28;20044;-75
2022/04/09 01:53:04;;;;;;;2.95;0.55;;;4.20;99.90;;;;;;5053492;28;20048;-75
2022/04/09 01:55:29;;;;;;;0.30;0.30;;;4.20;99.90;;;;;;5026112;28;20032;-75
2022/04/09 01:57:55;;;;;;;0.70;0.40;;;4.20;99.90;;;;;;5038239;28;20097;-75
2022/04/09 02:00:22;;;;;;;0.80;0.40;;;4.20;99.90;;;;;;5055944;28;20090;-75
2022/04/09 02:02:48;;;;;;;1.48;0.50;;;4.20;99.90;;;;;;5060955;28;20183;-75
2022/04/09 02:05:14;;;;;;;0.93;0.40;;;4.20;99.90;;;;;;5037969;28;20598;-75
2022/04/09 02:07:41;;;;;;;0.30;0.10;;;4.20;99.90;;;;;;5061070;28;20040;-75
2022/04/09 02:10:08;;;;;;;2.50;0.28;;;4.20;99.90;;;;;;5055486;28;20048;-75
2022/04/09 02:12:35;;;;;;;0.30;0.20;;;4.20;99.90;;;;;;5026531;28;20078;-75
2022/04/09 02:15:01;;;;;;;0.30;0.10;;;4.20;99.90;;;;;;5022517;28;20109;-75
2022/04/09 02:17:27;;;;;;;0.20;0.10;;;4.20;99.90;;;;;;5056675;28;20048;-75
2022/04/09 02:19:52;;;;;;;1.10;0.43;;;4.10;99.90;;;;;;5039996;28;20382;-75
2022/04/09 02:22:18;;;;;;;3.05;0.95;;;4.10;99.90;;;;;;5039737;28;20554;-75
2022/04/09 02:24:44;;;;;;;0.50;0.40;;;4.10;99.90;;;;;;5038161;28;21031;-75
2022/04/09 02:27:10;;;;;;;0.32;0.30;;;4.10;99.90;;;;;;5039585;28;20109;-76
2022/04/09 02:29:36;;;;;;;0.28;0.20;;;4.00;99.90;;;;;;5037458;28;20159;-75
2022/04/09 02:32:02;;;;;;;3.35;0.55;;;4.00;99.90;;;;;;5037795;28;20124;-75
2022/04/09 02:34:28;;;;;;;0.70;0.38;;;4.00;99.90;;;;;;5051721;28;20139;-75
2022/04/09 02:36:54;;;;;;;0.68;0.40;;;4.00;99.90;;;;;;5039687;28;20104;-75
2022/04/09 02:39:21;;;;;;;1.23;0.20;;;3.90;99.90;;;;;;5037650;28;20040;-75
2022/04/09 02:41:51;;;;;;;1.65;0.47;;;3.90;99.90;;;;;;5059105;28;20036;-75
2022/04/09 02:44:19;;;;;;;0.10;0.10;;;3.90;99.90;;;;;;5038931;28;20033;-75
2022/04/09 02:46:48;;;;;;;2.72;0.95;;;3.90;99.90;;;;;;5039110;28;20076;-75
2022/04/09 02:49:14;;;;;;;7.32;0.60;;;3.90;99.90;;;;;;5035217;28;20043;-75
2022/04/09 02:51:40;;;;;;;0.30;0.20;;;3.90;99.90;;;;;;5038420;28;20036;-75
2022/04/09 02:54:05;;;;;;;2.60;0.57;;;3.90;99.90;;;;;;5057307;28;20562;-75
2022/04/09 02:56:31;;;;;;;0.22;0.20;;;3.80;99.90;;;;;;5037602;28;20775;-75
2022/04/09 02:58:56;;;;;;;0.40;0.40;;;3.80;99.90;;;;;;5038502;28;20048;-75
2022/04/09 03:01:24;;;;;;;2.15;0.40;;;3.80;99.90;;;;;;5035983;28;20033;-75
2022/04/09 03:03:50;;;;;;;5.88;0.40;;;3.80;99.90;;;;;;5040691;28;20738;-75
2022/04/09 03:06:16;;;;;;;5.45;0.40;;;3.80;99.90;;;;;;5038229;28;20037;-75
2022/04/09 03:08:41;;;;;;;7.07;0.95;;;3.70;99.90;;;;;;5035156;28;20037;-75
2022/04/09 03:11:07;;;;;;;1.17;0.50;;;3.70;99.90;;;;;;5042850;28;20160;-75
2022/04/09 03:13:33;;;;;;;0.70;0.45;;;3.70;99.90;;;;;;5060566;28;20041;-75
2022/04/09 03:15:59;;;;;;;0.63;0.32;;;3.70;99.90;;;;;;5040724;28;20048;-75
2022/04/09 03:18:24;;;;;;;0.47;0.20;;;3.70;99.90;;;;;;5057836;28;20040;-75
2022/04/09 03:20:50;;;;;;;0.68;0.40;;;3.70;99.90;;;;;;5039619;28;20061;-75
2022/04/09 03:23:15;;;;;;;0.32;0.20;;;3.70;99.90;;;;;;5056326;28;20053;-75
2022/04/09 03:25:41;;;;;;;0.63;0.30;;;3.70;99.90;;;;;;5057639;28;20084;-75
2022/04/09 03:28:06;;;;;;;1.50;0.52;;;3.70;99.90;;;;;;5044003;28;20057;-76
2022/04/09 03:30:32;;;;;;;1.38;0.13;;;3.70;99.90;;;;;;5042885;28;20904;-75
2022/04/09 03:32:59;;;;;;;1.00;0.20;;;3.60;99.90;;;;;;5042918;28;20102;-75
2022/04/09 03:35:24;;;;;;;0.70;0.20;;;3.70;99.90;;;;;;5041757;28;20326;-75
2022/04/09 03:37:50;;;;;;;0.03;0.03;;;3.70;99.90;;;;;;5041998;28;20045;-75
2022/04/09 03:40:16;;;;;;;1.15;0.57;;;3.70;99.90;;;;;;5042177;28;20082;-75
2022/04/09 03:42:41;;;;;;;0.43;0.15;;;3.70;99.90;;;;;;5041014;28;20044;-75
2022/04/09 03:45:08;;;;;;;0.98;0.35;;;3.70;99.90;;;;;;5041087;28;20449;-76
2022/04/09 03:47:34;;;;;;;2.33;0.68;;;3.70;99.90;;;;;;5040283;28;20036;-76
2022/04/09 03:50:04;;;;;;;1.38;0.28;;;3.70;99.90;;;;;;5061707;28;20127;-75
2022/04/09 03:52:30;;;;;;;0.55;0.20;;;3.70;99.90;;;;;;5061617;28;20110;-75
2022/04/09 03:54:55;;;;;;;0.65;0.10;;;3.70;99.90;;;;;;5027162;28;20075;-75
2022/04/09 03:57:21;;;;;;;2.55;0.20;;;3.80;99.90;;;;;;5041955;28;20068;-75
2022/04/09 03:59:47;;;;;;;0.20;0.03;;;3.80;99.90;;;;;;5041589;28;20029;-76
2022/04/09 04:02:13;;;;;;;0.10;0.10;;;3.80;99.90;;;;;;5043403;28;20403;-76
2022/04/09 04:04:38;;;;;;;1.63;0.68;;;3.90;99.90;;;;;;5058824;28;20037;-76
2022/04/09 04:07:04;;;;;;;0.40;0.20;;;3.90;99.90;;;;;;5042299;28;20041;-75
2022/04/09 04:09:30;;;;;;;0.40;0.20;;;3.90;99.90;;;;;;5040645;28;20034;-76
2022/04/09 04:11:56;;;;;;;0.10;0.10;;;3.90;99.90;;;;;;5043953;28;20132;-75
2022/04/09 04:14:21;;;;;;;0.20;0.20;;;3.80;99.90;;;;;;5040829;28;20103;-75
2022/04/09 04:16:47;;;;;;;5.20;0.22;;;3.80;99.90;;;;;;5037667;28;20044;-75
2022/04/09 04:19:13;;;;;;;0.20;0.20;;;3.80;99.90;;;;;;5039878;28;20040;-76
2022/04/09 04:21:39;;;;;;;1.63;0.63;;;3.80;99.90;;;;;;5042302;28;20025;-75
2022/04/09 04:24:05;;;;;;;5.57;0.38;;;3.80;99.90;;;;;;5040405;28;20042;-76
2022/04/09 04:26:31;;;;;;;2.75;0.30;;;3.80;99.90;;;;;;5040760;28;20622;-75
2022/04/09 04:28:56;;;;;;;1.00;0.50;;;3.70;99.90;;;;;;5038844;28;20044;-75
2022/04/09 04:31:23;;;;;;;0.30;0.15;;;3.70;99.90;;;;;;5044155;28;20127;-75
2022/04/09 04:33:48;;;;;;;0.20;0.10;;;3.80;99.90;;;;;;5042814;28;20076;-75
2022/04/09 04:36:14;;;;;;;0.15;0.10;;;3.70;99.90;;;;;;5044873;28;20130;-75
2022/04/09 04:38:40;;;;;;;0.70;0.28;;;3.70;99.90;;;;;;5041862;28;20037;-75
2022/04/09 04:41:05;;;;;;;0.35;0.20;;;3.70;99.90;;;;;;5026042;28;20132;-75
2022/04/09 04:43:32;;;;;;;0.10;0.10;;;3.70;99.90;;;;;;5042095;28;20124;-75
2022/04/09 04:45:58;;;;;;;3.00;0.35;;;3.70;99.90;;;;;;5025520;28;20041;-76
2022/04/09 04:48:23;;;;;;;5.80;0.93;;;3.70;99.90;;;;;;5042279;28;20163;-76
2022/04/09 04:50:49;;;;;;;1.25;0.30;;;3.80;99.90;;;;;;5044223;28;20036;-75
2022/04/09 04:53:15;;;;;;;1.67;0.30;;;3.70;99.90;;;;;;5043972;28;20041;-76
2022/04/09 04:55:40;;;;;;;1.33;0.40;;;3.80;99.90;;;;;;5056956;28;20039;-76
2022/04/09 04:58:06;;;;;;;0.40;0.40;;;3.80;99.90;;;;;;5043476;28;20102;-75
2022/04/09 05:00:33;;;;;;;1.35;0.47;;;3.80;99.90;;;;;;5023607;28;20039;-75
2022/04/09 05:02:59;;;;;;;0.63;0.25;;;3.80;99.90;;;;;;5057872;28;20406;-76
2022/04/09 05:05:24;;;;;;;0.65;0.40;;;3.80;99.90;;;;;;5042394;28;20032;-75
2022/04/09 05:07:51;;;;;;;1.08;0.65;;;3.80;99.90;;;;;;5056223;28;20573;-76
2022/04/09 05:10:24;;;;;;;0.43;0.15;;;3.90;99.90;;;;;;5023141;28;20045;-76
2022/04/09 05:12:51;;;;;;;1.02;0.10;;;3.90;99.90;;;;;;5042651;28;20387;-75
2022/04/09 05:15:17;;;;;;;5.53;0.75;;;3.90;99.90;;;;;;5041579;28;20071;-76
2022/04/09 05:17:44;;;;;;;0.95;0.35;;;3.90;99.90;;;;;;5037506;28;20449;-76
2022/04/09 05:20:12;;;;;;;0.22;0.10;;;3.90;99.90;;;;;;5038281;28;20391;-76
2022/04/09 05:22:41;;;;;;;3.47;0.93;;;3.90;99.90;;;;;;5026961;28;20051;-76
2022/04/09 05:25:07;;;;;;;5.80;0.57;;;3.90;99.90;;;;;;5021483;28;20029;-75
2022/04/09 05:27:33;;;;;;;0.47;0.25;;;3.90;99.90;;;;;;5056602;28;20099;-76
2022/04/09 05:29:59;;;;;;;0.00;0.00;;;3.90;99.90;;;;;;5039917;28;20053;-75
2022/04/09 05:32:25;;;;;;;0.50;0.30;;;3.80;99.90;;;;;;5024508;28;20051;-76
2022/04/09 05:34:50;;;;;;;3.53;0.32;;;3.90;99.90;;;;;;5037330;28;20094;-76
2022/04/09 05:37:16;;;;;;;2.30;0.30;;;3.80;99.90;;;;;;5022554;28;20033;-76
2022/04/09 05:39:43;;;;;;;0.95;0.70;;;3.80;99.90;;;;;;5018159;28;20053;-75
2022/04/09 05:42:09;;;;;;;3.20;0.13;;;3.90;99.90;;;;;;5034545;28;20052;-76
2022/04/09 05:44:35;;;;;;;2.00;0.40;;;3.90;99.90;;;;;;5029549;28;20071;-76
2022/04/09 05:47:01;;;;;;;2.05;0.55;;;3.90;99.90;;;;;;5039416;28;20495;-75
2022/04/09 05:49:27;;;;;;;4.88;0.47;;;3.90;99.90;;;;;;5028309;28;20477;-75
2022/04/09 05:51:53;;;;;;;0.65;0.20;;;3.90;99.90;;;;;;5038766;28;20048;-75
2022/04/09 05:54:18;;;;;;;2.53;0.55;;;3.90;99.90;;;;;;5037710;28;20044;-76
2022/04/09 05:56:44;;;;;;;2.83;0.43;;;4.00;99.90;;;;;;5031089;28;20195;-76
2022/04/09 05:59:09;;;;;;;0.43;0.25;;;4.00;99.90;;;;;;5035256;28;20348;-75
2022/04/09 06:01:35;;;;;;;3.00;0.57;;;4.10;99.90;;;;;;5045051;28;20041;-75
2022/04/09 06:04:01;;;;;;;0.52;0.30;;;4.10;99.90;;;;;;5033288;28;20091;-76
2022/04/09 06:06:27;;;;;;;0.75;0.32;;;4.20;99.90;;;;;;5034707;28;20039;-75
2022/04/09 06:08:53;;;;;;;0.28;0.20;;;4.30;99.90;;;;;;5029421;28;20510;-75
2022/04/09 06:11:19;;;;;;;0.88;0.28;;;4.30;99.90;;;;;;5044424;28;20151;-75
2022/04/09 06:13:45;;;;;;;3.05;0.32;;;4.50;99.90;;;;;;5028156;28;20137;-76
2022/04/09 06:16:12;;;;;;;0.25;0.10;;;4.60;99.90;;;;;;5045672;28;20124;-76
2022/04/09 06:18:41;;;;;;;4.13;0.47;;;4.80;99.90;;;;;;5017490;28;20037;-76
2022/04/09 06:21:08;;;;;;;2.17;0.93;;;4.80;99.90;;;;;;5041949;28;20041;-76
2022/04/09 06:23:34;;;;;;;0.80;0.30;;;4.80;99.90;;;;;;5034520;28;20544;-76
2022/04/09 06:25:59;;;;;;;3.40;0.40;;;4.80;99.90;;;;;;5039935;28;20061;-75
2022/04/09 06:28:25;;;;;;;1.92;0.70;;;4.80;99.90;;;;;;5026971;28;20084;-76
2022/04/09 06:30:52;;;;;;;0.52;0.20;;;4.90;99.90;;;;;;5038977;28;20045;-78
2022/04/09 06:33:18;;;;;;;0.40;0.10;;;4.80;99.90;;;;;;5041486;28;20072;-76
2022/04/09 06:35:44;;;;;;;0.40;0.32;;;4.90;99.90;;;;;;5032351;28;20118;-76
2022/04/09 06:38:09;;;;;;;0.20;0.10;;;4.90;99.90;;;;;;5035678;28;20041;-77
2022/04/09 06:40:35;;;;;;;3.17;0.65;;;4.90;99.90;;;;;;5032260;28;20098;-77
2022/04/09 06:43:01;;;;;;;2.45;0.55;;;4.90;99.90;;;;;;5047208;28;20056;-76
2022/04/09 06:45:26;;;;;;;0.52;0.20;;;5.00;99.90;;;;;;5039788;28;20031;-78
2022/04/09 06:47:52;;;;;;;0.95;0.32;;;5.00;99.90;;;;;;5048143;28;20109;-77
2022/04/09 06:50:18;;;;;;;7.63;0.63;;;5.10;99.90;;;;;;5043009;28;20499;-78
2022/04/09 06:52:44;;;;;;;2.72;0.35;;;5.10;99.90;;;;;;5041953;28;20041;-77
2022/04/09 06:55:10;;;;;;;3.63;0.75;;;5.20;99.90;;;;;;5061465;28;20056;-77
2022/04/09 06:57:41;;;;;;;4.85;0.60;;;5.30;99.90;;;;;;5053594;28;20039;-76
2022/04/09 07:00:13;;;;;;;0.55;0.20;;;5.40;99.90;;;;;;5037664;28;20061;-77
2022/04/09 07:02:39;;;;;;;0.17;0.10;;;5.50;99.90;;;;;;5042959;28;20033;-76
2022/04/09 07:05:05;;;;;;;4.53;0.85;;;5.70;99.90;;;;;;5057298;28;20041;-76
2022/04/09 07:07:31;;;;;;;4.70;0.52;;;5.70;99.90;;;;;;5057182;28;20041;-77
2022/04/09 07:10:11;;;;;;;13.68;0.55;;;5.60;99.90;;;;;;5051357;28;20392;-77
2022/04/09 07:12:39;;;;;;;1.45;0.35;;;5.60;99.90;;;;;;5042330;28;20033;-77
2022/04/09 07:15:05;;;;;;;0.50;0.13;;;5.50;99.90;;;;;;5036868;28;20045;-76
2022/04/09 07:17:31;;;;;;;0.30;0.15;;;5.50;99.90;;;;;;5041994;28;20045;-78
2022/04/09 07:20:05;;;;;;;1.17;0.35;;;5.40;99.90;;;;;;5062624;28;20391;-78
2022/04/09 07:22:31;;;;;;;4.57;0.73;;;5.50;99.90;;;;;;5015989;28;20466;-77
2022/04/09 07:24:56;;;;;;;0.65;0.30;;;5.60;99.90;;;;;;5044549;28;20094;-76
2022/04/09 07:27:37;;;;;;;6.55;0.57;;;5.60;99.90;;;;;;5049514;28;20121;-75
2022/04/09 07:30:07;;;;;;;0.40;0.22;;;5.70;99.90;;;;;;5044308;28;20053;-77
2022/04/09 07:32:33;;;;;;;0.35;0.20;;;5.80;99.90;;;;;;5061280;28;20046;-77
2022/04/09 07:34:59;;;;;;;0.22;0.22;;;5.80;99.90;;;;;;5029052;28;20037;-79
2022/04/09 07:37:24;;;;;;;0.75;0.30;;;5.90;99.90;;;;;;5063929;28;20044;-77
2022/04/09 07:39:50;;;;;;;3.03;0.30;;;6.00;99.90;;;;;;5047556;28;20398;-77
2022/04/09 07:42:15;;;;;;;1.65;0.52;;;6.00;99.90;;;;;;5050949;28;20032;-77
2022/04/09 07:44:41;;;;;;;0.20;0.10;;;6.10;99.90;;;;;;5033591;28;20047;-77
2022/04/09 07:47:07;;;;;;;0.90;0.20;;;6.10;99.90;;;;;;5050909;28;20037;-77
2022/04/09 07:49:32;;;;;;;1.08;0.38;;;6.20;99.90;;;;;;5051501;28;20461;-77
2022/04/09 07:51:58;;;;;;;1.25;0.32;;;6.30;99.90;;;;;;5034560;28;20041;-77
2022/04/09 07:54:24;;;;;;;1.58;0.30;;;6.30;99.90;;;;;;5046479;28;20047;-77
2022/04/09 07:56:50;;;;;;;0.90;0.30;;;6.30;99.90;;;;;;5032386;28;20044;-77
2022/04/09 07:59:15;;;;;;;1.67;0.20;;;6.40;99.90;;;;;;5048799;28;20332;-77
2022/04/09 08:01:41;;;;;;;1.48;0.10;;;6.50;99.90;;;;;;5048167;28;20036;-77
2022/04/09 08:04:07;;;;;;;2.25;0.30;;;6.50;99.90;;;;;;5042442;28;20041;-77
2022/04/09 08:06:32;;;;;;;0.20;0.10;;;6.60;99.90;;;;;;5049325;28;20136;-77
2022/04/09 08:08:58;;;;;;;0.10;0.10;;;6.60;99.90;;;;;;5049112;28;20112;-77
2022/04/09 08:11:24;;;;;;;0.20;0.20;;;6.70;99.90;;;;;;5048620;28;20079;-77
2022/04/09 08:13:50;;;;;;;0.03;0.03;;;6.80;99.90;;;;;;5048995;28;20450;-77
2022/04/09 08:16:15;;;;;;;1.30;0.20;;;6.80;99.90;;;;;;5047999;28;20513;-77
2022/04/09 08:18:41;;;;;;;2.45;0.75;;;6.80;99.90;;;;;;5047184;28;20124;-77
2022/04/09 08:21:06;;;;;;;1.98;0.32;;;6.80;99.90;;;;;;5045753;28;20025;-77
2022/04/09 08:23:32;;;;;;;2.33;0.40;;;6.80;99.90;;;;;;5025952;28;20490;-78
2022/04/09 08:25:58;;;;;;;3.20;0.52;;;6.90;99.90;;;;;;5021083;28;20044;-77
2022/04/09 08:28:26;;;;;;;3.55;0.20;;;6.90;99.90;;;;;;5058042;28;20201;-77
2022/04/09 08:30:52;;;;;;;1.27;0.25;;;6.90;99.90;;;;;;5022670;28;20127;-78
2022/04/09 08:33:18;;;;;;;1.90;0.43;;;7.00;99.90;;;;;;5062816;28;20152;-78
2022/04/09 08:35:44;;;;;;;0.20;0.10;;;7.00;99.90;;;;;;5028406;28;20524;-78
2022/04/09 08:38:10;;;;;;;0.25;0.20;;;7.00;99.90;;;;;;5036875;28;20232;-78
2022/04/09 08:40:36;;;;;;;0.20;0.17;;;7.10;99.90;;;;;;5042038;28;20033;-77
2022/04/09 08:43:03;;;;;;;1.67;0.57;;;7.10;99.90;;;;;;5040016;28;20403;-77
2022/04/09 08:45:35;;;;;;;2.45;0.50;;;7.10;99.90;;;;;;5041617;28;20560;-77
2022/04/09 08:48:02;;;;;;;0.60;0.30;;;7.20;99.90;;;;;;5057183;28;20623;-78
2022/04/09 08:50:28;;;;;;;0.57;0.30;;;7.20;99.90;;;;;;5041999;28;20051;-77
2022/04/09 08:52:54;;;;;;;0.45;0.20;;;7.30;99.90;;;;;;5036339;28;20117;-77
2022/04/09 08:55:20;;;;;;;2.67;0.45;;;7.40;99.90;;;;;;5058137;28;20048;-77
2022/04/09 08:57:48;;;;;;;0.68;0.30;;;7.40;99.90;;;;;;5055060;28;20095;-77
2022/04/09 09:00:17;;;;;;;1.95;0.13;;;7.50;99.90;;;;;;5043060;28;20052;-77
2022/04/09 09:02:50;;;;;;;1.50;0.28;;;7.50;99.90;;;;;;5055938;28;20087;-81
2022/04/09 09:05:40;;;;;;;0.00;0.00;;;7.50;99.90;;;;;;5057583;28;20040;-79
2022/04/09 09:08:07;;;;;;;2.60;0.57;;;7.60;99.90;;;;;;5058709;28;20374;-79
2022/04/09 09:10:33;;;;;;;0.88;0.20;;;7.60;99.90;;;;;;5042748;28;20044;-78
2022/04/09 09:13:05;;;;;;;0.30;0.10;;;7.50;99.90;;;;;;5023121;28;20040;-78
2022/04/09 09:15:48;;;;;;;0.90;0.20;;;7.40;99.90;;;;;;5021343;28;20041;-77
2022/04/09 09:18:26;;;;;;;3.40;0.45;;;7.40;99.90;;;;;;5038506;28;20441;-78
2022/04/09 09:20:53;;;;;;;0.22;0.10;;;7.40;99.90;;;;;;5053656;28;20036;-78
2022/04/09 09:23:27;;;;;;;2.53;0.50;;;7.50;99.90;;;;;;5059278;28;20182;-78
2022/04/09 09:25:56;;;;;;;1.30;0.40;;;7.60;99.90;;;;;;5025202;28;20089;-78
2022/04/09 09:28:26;;;;;;;1.85;0.30;;;7.70;99.90;;;;;;5056954;28;20283;-78
2022/04/09 09:30:53;;;;;;;0.22;0.20;;;7.80;99.90;;;;;;5038879;28;20059;-78
2022/04/09 09:33:18;;;;;;;0.90;0.28;;;7.80;99.90;;;;;;5039689;28;20048;-77
2022/04/09 09:35:49;;;;;;;0.70;0.32;;;7.70;99.90;;;;;;5040360;28;20044;-77
2022/04/09 09:38:29;;;;;;;1.40;0.20;;;7.40;99.90;;;;;;5038966;28;20041;-77
2022/04/09 09:40:59;;;;;;;1.05;0.20;;;7.10;99.90;;;;;;5040286;28;20102;-77
2022/04/09 09:43:26;;;;;;;1.50;0.28;;;6.90;99.90;;;;;;5043070;28;20040;-77
2022/04/09 09:45:53;;;;;;;0.30;0.20;;;6.90;99.90;;;;;;5044263;28;20059;-79
2022/04/09 09:48:30;;;;;;;5.65;0.17;;;7.00;99.90;;;;;;5042069;28;20128;-79
2022/04/09 09:50:59;;;;;;;1.50;0.50;;;7.20;99.90;;;;;;5026396;28;20053;-79
2022/04/09 09:53:34;;;;;;;0.70;0.10;;;7.30;99.90;;;;;;5039495;28;20056;-79
2022/04/09 09:56:04;;;;;;;1.05;0.25;;;7.40;99.90;;;;;;5042364;28;20052;-80
2022/04/09 09:58:31;;;;;;;0.10;0.10;;;7.30;99.90;;;;;;5037466;28;20128;-80
2022/04/09 10:00:57;;;;;;;0.20;0.10;;;7.20;99.90;;;;;;5035944;28;20045;-80
2022/04/09 10:03:24;;;;;;;0.60;0.13;;;7.10;99.90;;;;;;5038921;28;20056;-80
2022/04/09 10:05:51;;;;;;;3.28;0.43;;;7.10;99.90;;;;;;5056165;28;20131;-81
2022/04/09 10:08:18;;;;;;;3.30;0.60;;;7.10;99.90;;;;;;5041942;28;20348;-79
2022/04/09 10:10:48;;;;;;;3.58;0.10;;;7.20;99.90;;;;;;5055763;28;20048;-79
2022/04/09 10:13:18;;;;;;;2.13;0.17;;;7.20;99.90;;;;;;5051093;28;20049;-79
2022/04/09 10:15:47;;;;;;;0.30;0.20;;;7.20;99.90;;;;;;5053075;28;20053;-80
2022/04/09 10:18:13;;;;;;;1.73;0.43;;;7.10;99.90;;;;;;5045883;28;20029;-79
2022/04/09 10:20:39;;;;;;;1.35;0.30;;;7.00;99.90;;;;;;5034789;28;20035;-80
2022/04/09 10:23:09;;;;;;;6.00;0.30;;;7.00;99.90;;;;;;5038419;28;20045;-79
2022/04/09 10:25:39;;;;;;;1.27;0.20;;;7.10;99.90;;;;;;5054733;28;20049;-79
2022/04/09 10:28:06;;;;;;;1.50;0.22;;;7.20;99.90;;;;;;5035372;28;20132;-78
2022/04/09 10:30:39;;;;;;;0.45;0.20;;;7.40;99.90;;;;;;5036158;28;20109;-79
2022/04/09 10:33:22;;;;;;;0.60;0.10;;;7.50;99.90;;;;;;5022297;28;20128;-80
2022/04/09 10:35:48;;;;;;;10.00;0.63;;;7.50;99.90;;;;;;5039267;28;20482;-78
2022/04/09 10:38:17;;;;;;;9.45;0.55;;;7.40;99.90;;;;;;5036026;28;20059;-79
2022/04/09 10:40:43;;;;;;;5.35;0.85;;;7.30;99.90;;;;;;5038670;28;20040;-79
2022/04/09 10:43:30;;;;;;;1.08;0.10;;;7.30;99.90;;;;;;5038418;28;20120;-79
2022/04/09 10:46:15;;;;;;;0.50;0.50;;;7.40;99.90;;;;;;5025430;28;20083;-80
2022/04/09 10:48:47;;;;;;;0.20;0.10;;;7.50;99.90;;;;;;5052977;28;20051;-80
2022/04/09 10:51:14;;;;;;;1.42;0.15;;;7.60;99.90;;;;;;5035511;28;20068;-80
2022/04/09 10:53:43;;;;;;;1.10;0.15;;;7.60;99.90;;;;;;5021513;28;20401;-79
2022/04/09 10:56:25;;;;;;;1.08;0.28;;;7.60;99.90;;;;;;5055564;28;20383;-79
2022/04/09 10:59:06;;;;;;;4.40;0.88;;;7.50;99.90;;;;;;5035049;28;20196;-79
2022/04/09 11:01:48;;;;;;;1.45;0.10;;;7.50;99.90;;;;;;5038451;28;20533;-79
2022/04/09 11:04:25;;;;;;;0.05;0.00;;;7.40;99.90;;;;;;5034021;28;20557;-79
2022/04/09 11:07:04;;;;;;;0.65;0.20;;;7.30;99.90;;;;;;5030919;28;20068;-80
2022/04/09 11:10:03;;;;;;;2.80;0.28;;;7.30;99.90;;;;;;5035962;28;20028;-79
2022/04/09 11:12:31;;;;;;;0.73;0.22;;;7.20;99.90;;;;;;5053187;28;20037;-79
2022/04/09 11:14:59;;;;;;;0.63;0.13;;;7.10;99.90;;;;;;5033008;28;20045;-80
2022/04/09 11:17:28;;;;;;;0.20;0.00;;;7.10;99.90;;;;;;5045522;28;20041;-79
2022/04/09 11:19:55;;;;;;;0.17;0.10;;;7.00;99.90;;;;;;5032137;28;20478;-79
2022/04/09 11:22:29;;;;;;;0.25;0.08;;;7.00;99.90;;;;;;5017611;28;20036;-80
2022/04/09 11:24:54;;;;;;;0.30;0.20;;;7.00;99.90;;;;;;5021089;28;20079;-79
2022/04/09 11:27:20;;;;;;;1.05;0.30;;;7.10;99.90;;;;;;5032944;28;20123;-80
2022/04/09 11:29:46;;;;;;;0.52;0.10;;;7.20;99.90;;;;;;5032827;28;20075;-80
2022/04/09 11:32:19;;;;;;;4.47;0.45;;;7.30;99.90;;;;;;5040125;28;20076;-80
2022/04/09 11:34:56;;;;;;;0.10;0.10;;;7.40;99.90;;;;;;5048974;28;20399;-80
2022/04/09 11:37:26;;;;;;;0.65;0.30;;;7.50;99.90;;;;;;5037848;28;20056;-80
2022/04/09 11:39:52;;;;;;;0.13;0.10;;;7.70;99.90;;;;;;5039113;28;20037;-80
2022/04/09 11:42:18;;;;;;;0.77;0.15;;;7.90;99.90;;;;;;5040910;28;20040;-80
2022/04/09 11:44:44;;;;;;;2.20;0.20;;;8.00;99.90;;;;;;5022238;28;20406;-80
2022/04/09 11:47:17;;;;;;;0.63;0.30;;;8.00;99.90;;;;;;5057878;28;20048;-81
2022/04/09 11:49:47;;;;;;;0.35;0.28;;;7.80;99.90;;;;;;5051124;28;20475;-80
2022/04/09 11:52:27;;;;;;;1.58;0.47;;;7.70;99.90;;;;;;5037718;28;20051;-80
2022/04/09 11:54:54;;;;;;;2.92;0.43;;;7.50;99.90;;;;;;5030712;28;20037;-80
2022/04/09 11:57:19;;;;;;;0.13;0.13;;;7.50;99.90;;;;;;5054421;28;20077;-79
2022/04/09 11:59:53;;;;;;;0.47;0.47;;;7.50;99.90;;;;;;5020096;28;20049;-80
2022/04/09 12:02:24;;;;;;;0.52;0.20;;;7.50;99.90;;;;;;5051463;28;20439;-80
2022/04/09 12:04:50;;;;;;;2.67;0.28;;;7.50;99.90;;;;;;5017536;28;20033;-80
2022/04/09 12:07:17;;;;;;;2.45;0.60;;;7.60;99.90;;;;;;5032546;28;20041;-80
2022/04/09 12:09:43;;;;;;;0.25;0.15;;;7.70;99.90;;;;;;5031068;28;21702;-81
2022/04/09 12:12:09;;;;;;;12.45;1.15;;;7.90;99.90;;;;;;5034552;28;20036;-82
2022/04/09 12:14:35;;;;;;;0.22;0.10;;;8.00;99.90;;;;;;5029233;28;20040;-81
2022/04/09 12:17:15;;;;;;;0.45;0.20;;;8.10;99.90;;;;;;5022111;28;20048;-81
2022/04/09 12:19:43;;;;;;;1.63;0.30;;;8.10;99.90;;;;;;5037394;28;20198;-80
2022/04/09 12:22:13;;;;;;;0.10;0.10;;;8.00;99.90;;;;;;5050030;28;20391;-81
2022/04/09 12:24:53;;;;;;;0.00;0.00;;;7.90;99.90;;;;;;5054241;28;20049;-81
2022/04/09 12:27:45;;;;;;;1.73;0.40;;;7.90;99.90;;;;;;5039001;28;20107;-81
2022/04/09 12:30:13;;;;;;;0.43;0.17;;;7.90;99.90;;;;;;5031136;28;20045;-81
2022/04/09 12:32:41;;;;;;;0.88;0.10;;;7.90;99.90;;;;;;5035289;28;20687;-81
2022/04/09 12:35:11;;;;;;;1.45;0.40;;;7.80;99.90;;;;;;5054133;28;20441;-81
2022/04/09 12:37:50;;;;;;;0.22;0.15;;;7.60;99.90;;;;;;5056843;28;20598;-81
2022/04/09 12:40:26;;;;;;;0.65;0.10;;;7.30;99.90;;;;;;5021156;28;20071;-81
2022/04/09 12:42:51;;;;;;;0.30;0.10;;;7.10;99.90;;;;;;5036794;28;20037;-81
2022/04/09 12:45:23;;;;;;;0.85;0.60;;;7.00;99.90;;;;;;5041374;28;20037;-81
2022/04/09 12:48:00;;;;;;;0.22;0.20;;;7.00;99.90;;;;;;5025126;28;20127;-80
2022/04/09 12:50:34;;;;;;;0.00;0.00;;;7.00;99.90;;;;;;5036207;28;20041;-80
2022/04/09 12:53:03;;;;;;;0.00;0.00;;;7.10;99.90;;;;;;5040563;28;20090;-81
2022/04/09 12:55:32;;;;;;;0.20;0.13;;;7.20;99.90;;;;;;5057410;28;20415;-80
2022/04/09 12:57:58;;;;;;;1.65;0.13;;;7.40;99.90;;;;;;5025143;28;20391;-80
2022/04/09 13:00:25;;;;;;;0.10;0.10;;;7.40;99.90;;;;;;5021354;28;20052;-80